sensor_id;sensor_type;location;lat;lon;timestamp;temperature;humidity
26964;DHT22;14521;48.148;-1.656;2022-12-29T00:00:45;18.60;99.90
26964;DHT22;14521;48.148;-1.656;2022-12-29T00:04:09;18.60;99.90
26964;DHT22;14521;48.148;-1.656;2022-12-29T00:07:36;18.60;99.90
26964;DHT22;14521;48.148;-1.656;2022-12-29T00:10:58;18.60;99.90
26964;DHT22;14521;48.148;-1.656;2022-12-29T00:14:20;18.60;99.90
26964;DHT22;14521;48.148;-1.656;2022-12-29T00:18:01;18.60;99.90
26964;DHT22;14521;48.148;-1.656;2022-12-29T00:21:23;18.60;99.90
26964;DHT22;14521;48.148;-1.656;2022-12-29T00:25:04;18.60;99.90
26964;DHT22;14521;48.148;-1.656;2022-12-29T00:28:27;18.60;99.90
26964;DHT22;14521;48.148;-1.656;2022-12-29T00:32:08;18.60;99.90
26964;DHT22;14521;48.148;-1.656;2022-12-29T00:35:53;18.60;99.90
26964;DHT22;14521;48.148;-1.656;2022-12-29T00:39:17;18.60;99.90
26964;DHT22;14521;48.148;-1.656;2022-12-29T00:42:59;18.60;99.80
26964;DHT22;14521;48.148;-1.656;2022-12-29T00:46:40;18.50;99.70
26964;DHT22;14521;48.148;-1.656;2022-12-29T00:50:03;18.60;99.60
26964;DHT22;14521;48.148;-1.656;2022-12-29T00:53:25;18.50;99.60
26964;DHT22;14521;48.148;-1.656;2022-12-29T00:56:48;18.60;99.60
26964;DHT22;14521;48.148;-1.656;2022-12-29T01:00:11;18.60;99.50
26964;DHT22;14521;48.148;-1.656;2022-12-29T01:03:35;18.60;99.50
26964;DHT22;14521;48.148;-1.656;2022-12-29T01:06:58;18.50;99.50
26964;DHT22;14521;48.148;-1.656;2022-12-29T01:10:20;18.50;99.60
26964;DHT22;14521;48.148;-1.656;2022-12-29T01:13:42;18.50;99.50
26964;DHT22;14521;48.148;-1.656;2022-12-29T01:17:05;18.60;99.50
26964;DHT22;14521;48.148;-1.656;2022-12-29T01:20:28;18.60;99.40
26964;DHT22;14521;48.148;-1.656;2022-12-29T01:23:51;18.50;99.40
26964;DHT22;14521;48.148;-1.656;2022-12-29T01:27:13;18.50;99.40
26964;DHT22;14521;48.148;-1.656;2022-12-29T01:30:35;18.50;99.40
26964;DHT22;14521;48.148;-1.656;2022-12-29T01:33:58;18.50;99.30
26964;DHT22;14521;48.148;-1.656;2022-12-29T01:37:20;18.50;99.20
26964;DHT22;14521;48.148;-1.656;2022-12-29T01:40:43;18.50;99.10
26964;DHT22;14521;48.148;-1.656;2022-12-29T01:47:57;18.50;99.00
26964;DHT22;14521;48.148;-1.656;2022-12-29T01:51:20;18.50;98.90
26964;DHT22;14521;48.148;-1.656;2022-12-29T01:54:44;18.50;98.80
26964;DHT22;14521;48.148;-1.656;2022-12-29T01:58:09;18.40;98.60
26964;DHT22;14521;48.148;-1.656;2022-12-29T02:01:33;18.50;98.50
26964;DHT22;14521;48.148;-1.656;2022-12-29T02:04:55;18.40;98.40
26964;DHT22;14521;48.148;-1.656;2022-12-29T02:08:26;18.40;98.40
26964;DHT22;14521;48.148;-1.656;2022-12-29T02:11:49;18.40;98.20
26964;DHT22;14521;48.148;-1.656;2022-12-29T02:15:12;18.50;98.30
26964;DHT22;14521;48.148;-1.656;2022-12-29T02:36:13;18.40;97.70
26964;DHT22;14521;48.148;-1.656;2022-12-29T02:39:52;18.40;97.50
26964;DHT22;14521;48.148;-1.656;2022-12-29T02:46:51;18.40;97.50
26964;DHT22;14521;48.148;-1.656;2022-12-29T02:50:18;18.40;97.30
26964;DHT22;14521;48.148;-1.656;2022-12-29T02:53:42;18.40;97.40
26964;DHT22;14521;48.148;-1.656;2022-12-29T03:00:50;18.40;97.20
26964;DHT22;14521;48.148;-1.656;2022-12-29T03:08:18;18.40;97.10
26964;DHT22;14521;48.148;-1.656;2022-12-29T03:11:58;18.30;97.10
26964;DHT22;14521;48.148;-1.656;2022-12-29T03:15:39;18.40;96.90
26964;DHT22;14521;48.148;-1.656;2022-12-29T03:19:23;18.30;97.00
26964;DHT22;14521;48.148;-1.656;2022-12-29T03:22:50;18.40;97.00
26964;DHT22;14521;48.148;-1.656;2022-12-29T03:26:16;18.30;97.00
26964;DHT22;14521;48.148;-1.656;2022-12-29T03:29:41;18.30;96.90
26964;DHT22;14521;48.148;-1.656;2022-12-29T03:33:07;18.30;96.90
26964;DHT22;14521;48.148;-1.656;2022-12-29T03:36:35;18.30;96.90
26964;DHT22;14521;48.148;-1.656;2022-12-29T03:40:02;18.30;96.90
26964;DHT22;14521;48.148;-1.656;2022-12-29T03:43:25;18.30;96.80
26964;DHT22;14521;48.148;-1.656;2022-12-29T03:46:49;18.30;96.80
26964;DHT22;14521;48.148;-1.656;2022-12-29T03:50:12;18.30;96.70
26964;DHT22;14521;48.148;-1.656;2022-12-29T03:53:36;18.30;96.70
26964;DHT22;14521;48.148;-1.656;2022-12-29T03:56:58;18.30;96.70
26964;DHT22;14521;48.148;-1.656;2022-12-29T04:00:35;18.20;96.60
26964;DHT22;14521;48.148;-1.656;2022-12-29T04:03:58;18.20;96.50
26964;DHT22;14521;48.148;-1.656;2022-12-29T04:07:20;18.20;96.50
26964;DHT22;14521;48.148;-1.656;2022-12-29T04:10:43;18.30;96.40
26964;DHT22;14521;48.148;-1.656;2022-12-29T04:14:07;18.20;96.30
26964;DHT22;14521;48.148;-1.656;2022-12-29T04:17:30;18.20;96.30
26964;DHT22;14521;48.148;-1.656;2022-12-29T04:20:52;18.20;96.30
26964;DHT22;14521;48.148;-1.656;2022-12-29T04:24:26;18.20;96.30
26964;DHT22;14521;48.148;-1.656;2022-12-29T04:27:49;18.20;96.20
26964;DHT22;14521;48.148;-1.656;2022-12-29T04:31:33;18.20;96.20
26964;DHT22;14521;48.148;-1.656;2022-12-29T04:34:56;18.20;96.20
26964;DHT22;14521;48.148;-1.656;2022-12-29T04:38:19;18.20;96.20
26964;DHT22;14521;48.148;-1.656;2022-12-29T04:41:42;18.20;96.10
26964;DHT22;14521;48.148;-1.656;2022-12-29T04:45:10;18.20;96.20
26964;DHT22;14521;48.148;-1.656;2022-12-29T04:48:53;18.20;96.10
26964;DHT22;14521;48.148;-1.656;2022-12-29T04:52:36;18.20;96.10
26964;DHT22;14521;48.148;-1.656;2022-12-29T04:55:59;18.20;96.10
26964;DHT22;14521;48.148;-1.656;2022-12-29T04:59:22;18.20;96.10
26964;DHT22;14521;48.148;-1.656;2022-12-29T05:02:48;18.20;96.00
26964;DHT22;14521;48.148;-1.656;2022-12-29T05:06:10;18.20;96.10
26964;DHT22;14521;48.148;-1.656;2022-12-29T05:09:32;18.20;96.00
26964;DHT22;14521;48.148;-1.656;2022-12-29T05:12:55;18.20;96.10
26964;DHT22;14521;48.148;-1.656;2022-12-29T05:16:20;18.20;96.20
26964;DHT22;14521;48.148;-1.656;2022-12-29T05:19:42;18.30;96.10
26964;DHT22;14521;48.148;-1.656;2022-12-29T05:23:04;18.30;96.10
26964;DHT22;14521;48.148;-1.656;2022-12-29T05:26:27;18.30;96.00
26964;DHT22;14521;48.148;-1.656;2022-12-29T05:30:08;18.40;96.00
26964;DHT22;14521;48.148;-1.656;2022-12-29T05:33:30;18.50;96.10
26964;DHT22;14521;48.148;-1.656;2022-12-29T05:36:53;18.50;96.00
26964;DHT22;14521;48.148;-1.656;2022-12-29T05:40:15;18.50;96.10
26964;DHT22;14521;48.148;-1.656;2022-12-29T05:43:38;18.50;96.00
26964;DHT22;14521;48.148;-1.656;2022-12-29T05:47:32;18.60;96.10
26964;DHT22;14521;48.148;-1.656;2022-12-29T05:51:16;18.60;96.00
26964;DHT22;14521;48.148;-1.656;2022-12-29T05:54:44;18.70;96.10
26964;DHT22;14521;48.148;-1.656;2022-12-29T05:58:10;18.70;96.00
26964;DHT22;14521;48.148;-1.656;2022-12-29T06:01:32;18.70;96.00
26964;DHT22;14521;48.148;-1.656;2022-12-29T06:04:56;18.80;96.00
26964;DHT22;14521;48.148;-1.656;2022-12-29T06:08:19;18.80;96.00
26964;DHT22;14521;48.148;-1.656;2022-12-29T06:11:42;18.80;95.90
26964;DHT22;14521;48.148;-1.656;2022-12-29T06:15:05;18.90;96.00
26964;DHT22;14521;48.148;-1.656;2022-12-29T06:18:28;18.80;95.90
26964;DHT22;14521;48.148;-1.656;2022-12-29T06:21:51;18.90;95.90
26964;DHT22;14521;48.148;-1.656;2022-12-29T06:25:15;18.90;95.90
26964;DHT22;14521;48.148;-1.656;2022-12-29T06:28:38;18.90;95.90
26964;DHT22;14521;48.148;-1.656;2022-12-29T06:32:00;18.90;95.80
26964;DHT22;14521;48.148;-1.656;2022-12-29T06:35:25;18.90;95.80
26964;DHT22;14521;48.148;-1.656;2022-12-29T06:38:47;18.90;95.80
26964;DHT22;14521;48.148;-1.656;2022-12-29T06:42:10;18.90;95.80
26964;DHT22;14521;48.148;-1.656;2022-12-29T06:45:40;19.00;95.60
26964;DHT22;14521;48.148;-1.656;2022-12-29T06:49:02;19.00;95.60
26964;DHT22;14521;48.148;-1.656;2022-12-29T06:52:25;19.10;95.10
26964;DHT22;14521;48.148;-1.656;2022-12-29T06:55:47;19.10;95.10
26964;DHT22;14521;48.148;-1.656;2022-12-29T06:59:09;19.10;95.10
26964;DHT22;14521;48.148;-1.656;2022-12-29T07:02:31;19.20;95.10
26964;DHT22;14521;48.148;-1.656;2022-12-29T07:05:54;19.20;94.90
26964;DHT22;14521;48.148;-1.656;2022-12-29T07:09:16;19.20;95.60
26964;DHT22;14521;48.148;-1.656;2022-12-29T07:12:38;19.20;95.20
26964;DHT22;14521;48.148;-1.656;2022-12-29T07:16:04;19.20;95.00
26964;DHT22;14521;48.148;-1.656;2022-12-29T07:19:27;19.20;95.50
26964;DHT22;14521;48.148;-1.656;2022-12-29T07:22:49;19.20;96.00
26964;DHT22;14521;48.148;-1.656;2022-12-29T07:26:12;19.30;95.40
26964;DHT22;14521;48.148;-1.656;2022-12-29T07:29:36;19.20;95.80
26964;DHT22;14521;48.148;-1.656;2022-12-29T07:32:58;19.20;95.70
26964;DHT22;14521;48.148;-1.656;2022-12-29T07:36:20;19.10;96.30
26964;DHT22;14521;48.148;-1.656;2022-12-29T07:39:43;19.10;96.70
26964;DHT22;14521;48.148;-1.656;2022-12-29T07:43:05;19.00;96.70
26964;DHT22;14521;48.148;-1.656;2022-12-29T07:46:33;19.10;96.40
26964;DHT22;14521;48.148;-1.656;2022-12-29T07:50:15;19.10;95.90
26964;DHT22;14521;48.148;-1.656;2022-12-29T07:53:37;19.20;96.60
26964;DHT22;14521;48.148;-1.656;2022-12-29T07:56:59;19.10;96.80
26964;DHT22;14521;48.148;-1.656;2022-12-29T08:00:22;19.10;96.20
26964;DHT22;14521;48.148;-1.656;2022-12-29T08:03:46;19.20;96.10
26964;DHT22;14521;48.148;-1.656;2022-12-29T08:07:13;19.10;96.10
26964;DHT22;14521;48.148;-1.656;2022-12-29T08:10:35;19.10;96.30
26964;DHT22;14521;48.148;-1.656;2022-12-29T08:13:57;19.10;96.20
26964;DHT22;14521;48.148;-1.656;2022-12-29T08:17:20;19.10;96.30
26964;DHT22;14521;48.148;-1.656;2022-12-29T08:20:42;19.10;96.70
26964;DHT22;14521;48.148;-1.656;2022-12-29T08:24:04;19.20;95.90
26964;DHT22;14521;48.148;-1.656;2022-12-29T08:27:27;19.10;96.20
26964;DHT22;14521;48.148;-1.656;2022-12-29T08:30:49;19.10;95.50
26964;DHT22;14521;48.148;-1.656;2022-12-29T08:34:12;19.00;95.80
26964;DHT22;14521;48.148;-1.656;2022-12-29T08:37:34;19.00;95.20
26964;DHT22;14521;48.148;-1.656;2022-12-29T08:40:57;19.00;95.10
26964;DHT22;14521;48.148;-1.656;2022-12-29T08:44:19;18.90;95.20
26964;DHT22;14521;48.148;-1.656;2022-12-29T08:47:42;18.90;95.30
26964;DHT22;14521;48.148;-1.656;2022-12-29T08:51:04;19.00;95.10
26964;DHT22;14521;48.148;-1.656;2022-12-29T08:54:27;19.00;94.70
26964;DHT22;14521;48.148;-1.656;2022-12-29T08:57:49;19.00;94.40
26964;DHT22;14521;48.148;-1.656;2022-12-29T09:01:13;18.90;95.60
26964;DHT22;14521;48.148;-1.656;2022-12-29T09:04:36;18.90;95.80
26964;DHT22;14521;48.148;-1.656;2022-12-29T09:07:58;19.00;95.30
26964;DHT22;14521;48.148;-1.656;2022-12-29T09:11:21;19.00;94.70
26964;DHT22;14521;48.148;-1.656;2022-12-29T09:14:45;19.10;94.20
26964;DHT22;14521;48.148;-1.656;2022-12-29T09:18:08;19.10;95.30
26964;DHT22;14521;48.148;-1.656;2022-12-29T09:21:37;19.10;95.30
26964;DHT22;14521;48.148;-1.656;2022-12-29T09:24:59;19.10;95.10
26964;DHT22;14521;48.148;-1.656;2022-12-29T09:28:22;19.20;95.20
26964;DHT22;14521;48.148;-1.656;2022-12-29T09:31:45;19.20;95.20
26964;DHT22;14521;48.148;-1.656;2022-12-29T09:35:07;19.20;95.10
26964;DHT22;14521;48.148;-1.656;2022-12-29T09:38:29;19.20;96.40
26964;DHT22;14521;48.148;-1.656;2022-12-29T09:41:57;19.10;96.60
26964;DHT22;14521;48.148;-1.656;2022-12-29T09:45:27;19.10;96.40
26964;DHT22;14521;48.148;-1.656;2022-12-29T09:48:53;19.10;96.10
26964;DHT22;14521;48.148;-1.656;2022-12-29T09:52:25;19.10;95.80
26964;DHT22;14521;48.148;-1.656;2022-12-29T09:55:52;19.00;95.70
26964;DHT22;14521;48.148;-1.656;2022-12-29T09:59:16;19.00;96.00
26964;DHT22;14521;48.148;-1.656;2022-12-29T10:02:43;19.00;96.00
26964;DHT22;14521;48.148;-1.656;2022-12-29T10:12:58;19.00;96.50
26964;DHT22;14521;48.148;-1.656;2022-12-29T10:16:28;19.00;96.10
26964;DHT22;14521;48.148;-1.656;2022-12-29T10:19:57;19.00;94.40
26964;DHT22;14521;48.148;-1.656;2022-12-29T10:23:29;19.00;95.20
26964;DHT22;14521;48.148;-1.656;2022-12-29T10:26:53;19.00;94.40
26964;DHT22;14521;48.148;-1.656;2022-12-29T10:30:17;19.00;94.70
26964;DHT22;14521;48.148;-1.656;2022-12-29T10:33:41;19.00;93.90
26964;DHT22;14521;48.148;-1.656;2022-12-29T10:37:05;19.00;93.50
26964;DHT22;14521;48.148;-1.656;2022-12-29T10:40:33;19.00;94.70
26964;DHT22;14521;48.148;-1.656;2022-12-29T10:43:57;19.10;94.70
26964;DHT22;14521;48.148;-1.656;2022-12-29T10:47:23;19.00;94.70
26964;DHT22;14521;48.148;-1.656;2022-12-29T10:50:47;19.10;94.60
26964;DHT22;14521;48.148;-1.656;2022-12-29T10:54:23;19.10;94.50
26964;DHT22;14521;48.148;-1.656;2022-12-29T10:57:47;19.10;94.20
26964;DHT22;14521;48.148;-1.656;2022-12-29T11:01:11;19.10;94.20
26964;DHT22;14521;48.148;-1.656;2022-12-29T11:04:37;19.10;93.90
26964;DHT22;14521;48.148;-1.656;2022-12-29T11:08:02;19.30;93.70
26964;DHT22;14521;48.148;-1.656;2022-12-29T11:11:26;19.50;92.80
26964;DHT22;14521;48.148;-1.656;2022-12-29T11:15:06;19.70;91.60
26964;DHT22;14521;48.148;-1.656;2022-12-29T11:18:34;19.80;86.70
26964;DHT22;14521;48.148;-1.656;2022-12-29T11:22:21;19.80;90.60
26964;DHT22;14521;48.148;-1.656;2022-12-29T11:25:43;20.00;90.60
26964;DHT22;14521;48.148;-1.656;2022-12-29T11:32:49;20.10;89.40
26964;DHT22;14521;48.148;-1.656;2022-12-29T11:36:17;20.10;89.20
26964;DHT22;14521;48.148;-1.656;2022-12-29T11:43:32;20.30;89.20
26964;DHT22;14521;48.148;-1.656;2022-12-29T11:46:56;20.30;89.20
26964;DHT22;14521;48.148;-1.656;2022-12-29T11:50:22;20.30;89.80
26964;DHT22;14521;48.148;-1.656;2022-12-29T11:53:46;20.20;90.50
26964;DHT22;14521;48.148;-1.656;2022-12-29T11:57:10;20.10;89.80
26964;DHT22;14521;48.148;-1.656;2022-12-29T12:00:34;19.90;90.40
26964;DHT22;14521;48.148;-1.656;2022-12-29T12:07:28;19.60;91.40
26964;DHT22;14521;48.148;-1.656;2022-12-29T12:10:58;19.50;91.90
26964;DHT22;14521;48.148;-1.656;2022-12-29T12:14:30;19.40;91.80
26964;DHT22;14521;48.148;-1.656;2022-12-29T12:18:39;19.40;92.50
26964;DHT22;14521;48.148;-1.656;2022-12-29T12:25:47;19.50;94.00
26964;DHT22;14521;48.148;-1.656;2022-12-29T12:29:16;19.50;94.50
26964;DHT22;14521;48.148;-1.656;2022-12-29T12:36:14;19.70;94.70
26964;DHT22;14521;48.148;-1.656;2022-12-29T12:40:05;19.70;93.50
26964;DHT22;14521;48.148;-1.656;2022-12-29T13:00:45;19.20;94.80
26964;DHT22;14521;48.148;-1.656;2022-12-29T13:19:05;19.20;94.00
26964;DHT22;14521;48.148;-1.656;2022-12-29T13:22:32;19.10;94.20
26964;DHT22;14521;48.148;-1.656;2022-12-29T13:29:59;19.00;93.80
26964;DHT22;14521;48.148;-1.656;2022-12-29T13:33:33;19.10;94.20
26964;DHT22;14521;48.148;-1.656;2022-12-29T13:36:59;19.10;93.70
26964;DHT22;14521;48.148;-1.656;2022-12-29T13:40:23;19.00;93.20
26964;DHT22;14521;48.148;-1.656;2022-12-29T13:43:46;19.00;93.60
26964;DHT22;14521;48.148;-1.656;2022-12-29T13:47:32;19.10;93.60
26964;DHT22;14521;48.148;-1.656;2022-12-29T13:50:53;19.00;93.50
26964;DHT22;14521;48.148;-1.656;2022-12-29T13:57:40;19.00;93.60
26964;DHT22;14521;48.148;-1.656;2022-12-29T14:01:15;19.00;93.60
26964;DHT22;14521;48.148;-1.656;2022-12-29T14:04:54;19.10;93.90
26964;DHT22;14521;48.148;-1.656;2022-12-29T14:08:17;19.00;93.80
26964;DHT22;14521;48.148;-1.656;2022-12-29T14:11:39;19.00;93.70
26964;DHT22;14521;48.148;-1.656;2022-12-29T14:15:24;19.00;93.60
26964;DHT22;14521;48.148;-1.656;2022-12-29T14:18:46;19.00;93.70
26964;DHT22;14521;48.148;-1.656;2022-12-29T14:22:08;19.00;93.80
26964;DHT22;14521;48.148;-1.656;2022-12-29T14:29:16;18.90;93.70
26964;DHT22;14521;48.148;-1.656;2022-12-29T14:33:01;19.00;93.50
26964;DHT22;14521;48.148;-1.656;2022-12-29T14:36:25;19.00;93.50
26964;DHT22;14521;48.148;-1.656;2022-12-29T14:39:48;19.00;93.60
26964;DHT22;14521;48.148;-1.656;2022-12-29T14:43:18;19.00;93.40
26964;DHT22;14521;48.148;-1.656;2022-12-29T14:47:00;18.90;93.40
26964;DHT22;14521;48.148;-1.656;2022-12-29T14:50:36;18.90;93.40
26964;DHT22;14521;48.148;-1.656;2022-12-29T14:54:00;18.90;93.40
26964;DHT22;14521;48.148;-1.656;2022-12-29T14:57:53;18.90;93.40
26964;DHT22;14521;48.148;-1.656;2022-12-29T15:04:41;18.90;93.50
26964;DHT22;14521;48.148;-1.656;2022-12-29T15:08:04;18.90;93.40
26964;DHT22;14521;48.148;-1.656;2022-12-29T15:15:02;18.80;93.90
26964;DHT22;14521;48.148;-1.656;2022-12-29T15:18:38;18.90;93.50
26964;DHT22;14521;48.148;-1.656;2022-12-29T15:22:04;18.80;93.40
26964;DHT22;14521;48.148;-1.656;2022-12-29T15:25:27;18.80;93.60
26964;DHT22;14521;48.148;-1.656;2022-12-29T15:28:50;18.80;93.70
26964;DHT22;14521;48.148;-1.656;2022-12-29T15:35:37;18.80;93.80
26964;DHT22;14521;48.148;-1.656;2022-12-29T15:38:59;18.80;93.70
26964;DHT22;14521;48.148;-1.656;2022-12-29T15:42:25;18.80;93.80
26964;DHT22;14521;48.148;-1.656;2022-12-29T15:45:49;18.80;93.90
26964;DHT22;14521;48.148;-1.656;2022-12-29T15:49:13;18.80;93.70
26964;DHT22;14521;48.148;-1.656;2022-12-29T15:52:35;18.80;93.70
26964;DHT22;14521;48.148;-1.656;2022-12-29T15:56:02;18.80;93.20
26964;DHT22;14521;48.148;-1.656;2022-12-29T15:59:29;18.80;93.00
26964;DHT22;14521;48.148;-1.656;2022-12-29T16:02:52;18.80;93.20
26964;DHT22;14521;48.148;-1.656;2022-12-29T16:06:26;18.80;93.20
26964;DHT22;14521;48.148;-1.656;2022-12-29T16:09:48;18.80;93.30
26964;DHT22;14521;48.148;-1.656;2022-12-29T16:13:22;18.80;93.50
26964;DHT22;14521;48.148;-1.656;2022-12-29T16:16:46;18.80;92.80
26964;DHT22;14521;48.148;-1.656;2022-12-29T16:20:17;18.90;93.60
26964;DHT22;14521;48.148;-1.656;2022-12-29T16:23:40;18.80;93.40
26964;DHT22;14521;48.148;-1.656;2022-12-29T16:30:31;18.90;93.50
26964;DHT22;14521;48.148;-1.656;2022-12-29T16:33:55;18.90;93.40
26964;DHT22;14521;48.148;-1.656;2022-12-29T16:37:28;18.90;93.20
26964;DHT22;14521;48.148;-1.656;2022-12-29T16:44:16;18.90;93.20
26964;DHT22;14521;48.148;-1.656;2022-12-29T16:47:39;18.80;93.30
26964;DHT22;14521;48.148;-1.656;2022-12-29T16:51:05;18.90;93.50
26964;DHT22;14521;48.148;-1.656;2022-12-29T16:54:35;18.80;93.50
26964;DHT22;14521;48.148;-1.656;2022-12-29T16:57:57;18.90;93.40
26964;DHT22;14521;48.148;-1.656;2022-12-29T17:01:20;18.90;93.40
26964;DHT22;14521;48.148;-1.656;2022-12-29T17:04:43;18.80;93.40
26964;DHT22;14521;48.148;-1.656;2022-12-29T17:08:16;18.80;93.40
26964;DHT22;14521;48.148;-1.656;2022-12-29T17:11:45;18.90;93.40
26964;DHT22;14521;48.148;-1.656;2022-12-29T17:15:24;18.90;93.30
26964;DHT22;14521;48.148;-1.656;2022-12-29T17:18:47;18.80;93.40
26964;DHT22;14521;48.148;-1.656;2022-12-29T17:22:10;18.90;93.40
26964;DHT22;14521;48.148;-1.656;2022-12-29T17:25:35;18.90;93.40
26964;DHT22;14521;48.148;-1.656;2022-12-29T17:28:58;18.80;93.40
26964;DHT22;14521;48.148;-1.656;2022-12-29T17:32:20;18.80;93.40
26964;DHT22;14521;48.148;-1.656;2022-12-29T17:35:43;18.90;93.30
26964;DHT22;14521;48.148;-1.656;2022-12-29T17:39:05;18.80;93.30
26964;DHT22;14521;48.148;-1.656;2022-12-29T17:42:27;18.90;93.20
26964;DHT22;14521;48.148;-1.656;2022-12-29T17:45:52;18.90;93.10
26964;DHT22;14521;48.148;-1.656;2022-12-29T17:49:15;18.90;93.20
26964;DHT22;14521;48.148;-1.656;2022-12-29T17:52:38;18.90;93.20
26964;DHT22;14521;48.148;-1.656;2022-12-29T17:56:00;18.90;93.20
26964;DHT22;14521;48.148;-1.656;2022-12-29T17:59:23;18.90;93.20
26964;DHT22;14521;48.148;-1.656;2022-12-29T18:02:45;18.90;93.20
26964;DHT22;14521;48.148;-1.656;2022-12-29T18:06:08;18.90;93.30
26964;DHT22;14521;48.148;-1.656;2022-12-29T18:09:31;18.90;93.30
26964;DHT22;14521;48.148;-1.656;2022-12-29T18:12:54;18.90;93.30
26964;DHT22;14521;48.148;-1.656;2022-12-29T18:16:16;19.00;93.30
26964;DHT22;14521;48.148;-1.656;2022-12-29T18:19:39;19.00;93.40
26964;DHT22;14521;48.148;-1.656;2022-12-29T18:23:01;19.00;93.10
26964;DHT22;14521;48.148;-1.656;2022-12-29T18:26:13;19.00;93.20
26964;DHT22;14521;48.148;-1.656;2022-12-29T18:29:36;19.00;93.20
26964;DHT22;14521;48.148;-1.656;2022-12-29T18:32:58;19.00;93.20
26964;DHT22;14521;48.148;-1.656;2022-12-29T18:36:21;19.00;93.20
26964;DHT22;14521;48.148;-1.656;2022-12-29T18:39:43;19.00;92.90
26964;DHT22;14521;48.148;-1.656;2022-12-29T18:43:05;19.00;92.80
26964;DHT22;14521;48.148;-1.656;2022-12-29T18:46:27;19.00;92.70
26964;DHT22;14521;48.148;-1.656;2022-12-29T18:49:51;19.00;92.70
26964;DHT22;14521;48.148;-1.656;2022-12-29T18:53:14;19.10;92.70
26964;DHT22;14521;48.148;-1.656;2022-12-29T18:56:37;19.00;92.50
26964;DHT22;14521;48.148;-1.656;2022-12-29T18:59:59;19.10;93.00
26964;DHT22;14521;48.148;-1.656;2022-12-29T19:03:22;19.10;92.30
26964;DHT22;14521;48.148;-1.656;2022-12-29T19:06:44;19.20;92.20
26964;DHT22;14521;48.148;-1.656;2022-12-29T19:10:06;19.20;91.50
26964;DHT22;14521;48.148;-1.656;2022-12-29T19:13:29;19.30;92.00
26964;DHT22;14521;48.148;-1.656;2022-12-29T19:16:51;19.30;92.50
26964;DHT22;14521;48.148;-1.656;2022-12-29T19:20:19;19.40;92.60
26964;DHT22;14521;48.148;-1.656;2022-12-29T19:23:43;19.40;92.60
26964;DHT22;14521;48.148;-1.656;2022-12-29T19:27:06;19.40;91.60
26964;DHT22;14521;48.148;-1.656;2022-12-29T19:30:28;19.40;93.40
26964;DHT22;14521;48.148;-1.656;2022-12-29T19:33:50;19.50;93.90
26964;DHT22;14521;48.148;-1.656;2022-12-29T19:37:12;19.50;93.00
26964;DHT22;14521;48.148;-1.656;2022-12-29T19:40:35;19.50;92.60
26964;DHT22;14521;48.148;-1.656;2022-12-29T19:43:57;19.50;92.60
26964;DHT22;14521;48.148;-1.656;2022-12-29T19:47:19;19.50;94.40
26964;DHT22;14521;48.148;-1.656;2022-12-29T19:50:42;19.50;93.30
26964;DHT22;14521;48.148;-1.656;2022-12-29T19:54:04;19.50;94.20
26964;DHT22;14521;48.148;-1.656;2022-12-29T19:57:27;19.50;93.50
26964;DHT22;14521;48.148;-1.656;2022-12-29T20:00:49;19.50;94.10
26964;DHT22;14521;48.148;-1.656;2022-12-29T20:04:12;19.50;93.50
26964;DHT22;14521;48.148;-1.656;2022-12-29T20:07:34;19.50;93.40
26964;DHT22;14521;48.148;-1.656;2022-12-29T20:10:58;19.50;94.70
26964;DHT22;14521;48.148;-1.656;2022-12-29T20:14:20;19.40;94.30
26964;DHT22;14521;48.148;-1.656;2022-12-29T20:17:42;19.40;93.80
26964;DHT22;14521;48.148;-1.656;2022-12-29T20:21:25;19.40;94.10
26964;DHT22;14521;48.148;-1.656;2022-12-29T20:24:47;19.40;94.10
26964;DHT22;14521;48.148;-1.656;2022-12-29T20:28:11;19.40;94.50
26964;DHT22;14521;48.148;-1.656;2022-12-29T20:31:35;19.40;94.30
26964;DHT22;14521;48.148;-1.656;2022-12-29T20:34:58;19.40;94.50
26964;DHT22;14521;48.148;-1.656;2022-12-29T20:38:20;19.40;94.40
26964;DHT22;14521;48.148;-1.656;2022-12-29T20:41:42;19.40;94.70
26964;DHT22;14521;48.148;-1.656;2022-12-29T20:45:04;19.40;94.30
26964;DHT22;14521;48.148;-1.656;2022-12-29T20:48:28;19.40;94.40
26964;DHT22;14521;48.148;-1.656;2022-12-29T20:51:50;19.40;94.60
26964;DHT22;14521;48.148;-1.656;2022-12-29T20:55:27;19.40;94.70
26964;DHT22;14521;48.148;-1.656;2022-12-29T20:58:49;19.30;92.60
26964;DHT22;14521;48.148;-1.656;2022-12-29T21:02:32;19.00;92.30
26964;DHT22;14521;48.148;-1.656;2022-12-29T21:05:54;18.90;92.60
26964;DHT22;14521;48.148;-1.656;2022-12-29T21:09:17;19.00;94.10
26964;DHT22;14521;48.148;-1.656;2022-12-29T21:12:39;19.10;93.80
26964;DHT22;14521;48.148;-1.656;2022-12-29T21:16:03;19.10;94.40
26964;DHT22;14521;48.148;-1.656;2022-12-29T21:19:26;19.20;94.40
26964;DHT22;14521;48.148;-1.656;2022-12-29T21:22:48;19.20;94.50
26964;DHT22;14521;48.148;-1.656;2022-12-29T21:26:12;19.20;94.60
26964;DHT22;14521;48.148;-1.656;2022-12-29T21:29:35;19.20;94.30
26964;DHT22;14521;48.148;-1.656;2022-12-29T21:32:57;19.20;94.50
26964;DHT22;14521;48.148;-1.656;2022-12-29T21:36:20;19.20;94.40
26964;DHT22;14521;48.148;-1.656;2022-12-29T21:39:42;19.10;94.30
26964;DHT22;14521;48.148;-1.656;2022-12-29T21:43:04;19.20;94.30
26964;DHT22;14521;48.148;-1.656;2022-12-29T21:46:26;19.10;94.10
26964;DHT22;14521;48.148;-1.656;2022-12-29T21:49:49;19.10;94.00
26964;DHT22;14521;48.148;-1.656;2022-12-29T21:53:11;19.10;94.00
26964;DHT22;14521;48.148;-1.656;2022-12-29T21:56:33;19.20;93.60
26964;DHT22;14521;48.148;-1.656;2022-12-29T21:59:55;19.20;93.80
26964;DHT22;14521;48.148;-1.656;2022-12-29T22:03:37;19.20;93.70
26964;DHT22;14521;48.148;-1.656;2022-12-29T22:07:18;19.20;93.80
26964;DHT22;14521;48.148;-1.656;2022-12-29T22:10:59;19.10;94.00
26964;DHT22;14521;48.148;-1.656;2022-12-29T22:14:40;19.10;94.20
26964;DHT22;14521;48.148;-1.656;2022-12-29T22:18:03;19.10;94.00
26964;DHT22;14521;48.148;-1.656;2022-12-29T22:21:25;19.00;94.00
26964;DHT22;14521;48.148;-1.656;2022-12-29T22:24:47;19.00;94.00
26964;DHT22;14521;48.148;-1.656;2022-12-29T22:28:09;19.00;94.00
26964;DHT22;14521;48.148;-1.656;2022-12-29T22:31:32;19.00;94.00
26964;DHT22;14521;48.148;-1.656;2022-12-29T22:34:54;18.90;94.10
26964;DHT22;14521;48.148;-1.656;2022-12-29T22:38:17;19.00;93.70
26964;DHT22;14521;48.148;-1.656;2022-12-29T22:41:39;19.00;94.10
26964;DHT22;14521;48.148;-1.656;2022-12-29T22:45:02;19.00;93.40
26964;DHT22;14521;48.148;-1.656;2022-12-29T22:48:24;19.00;93.60
26964;DHT22;14521;48.148;-1.656;2022-12-29T22:51:47;18.90;93.30
26964;DHT22;14521;48.148;-1.656;2022-12-29T22:55:09;19.00;93.20
26964;DHT22;14521;48.148;-1.656;2022-12-29T22:58:31;19.00;93.00
26964;DHT22;14521;48.148;-1.656;2022-12-29T23:01:53;18.90;92.90
26964;DHT22;14521;48.148;-1.656;2022-12-29T23:05:16;18.90;92.90
26964;DHT22;14521;48.148;-1.656;2022-12-29T23:08:38;18.80;92.70
26964;DHT22;14521;48.148;-1.656;2022-12-29T23:12:00;18.80;92.50
26964;DHT22;14521;48.148;-1.656;2022-12-29T23:15:23;18.80;92.60